sensor_id;sensor_type;location;lat;lon;timestamp;P1;durP1;ratioP1;P2;durP2;ratioP2
18072;SDS011;9161;47.348;9.648;2022-12-07T00:01:04;13.40;;;6.87;;
18072;SDS011;9161;47.348;9.648;2022-12-07T00:05:49;15.80;;;8.33;;
18072;SDS011;9161;47.348;9.648;2022-12-07T00:10:33;18.53;;;9.03;;
18072;SDS011;9161;47.348;9.648;2022-12-07T00:15:18;17.73;;;8.40;;
18072;SDS011;9161;47.348;9.648;2022-12-07T00:20:01;14.03;;;6.80;;
18072;SDS011;9161;47.348;9.648;2022-12-07T00:24:46;14.23;;;6.50;;
18072;SDS011;9161;47.348;9.648;2022-12-07T00:29:30;17.23;;;6.70;;
18072;SDS011;9161;47.348;9.648;2022-12-07T00:34:15;16.83;;;7.17;;
18072;SDS011;9161;47.348;9.648;2022-12-07T00:39:01;9.63;;;5.80;;
18072;SDS011;9161;47.348;9.648;2022-12-07T00:43:45;12.00;;;5.50;;
18072;SDS011;9161;47.348;9.648;2022-12-07T00:48:30;9.83;;;5.97;;
18072;SDS011;9161;47.348;9.648;2022-12-07T00:53:20;14.27;;;6.03;;
18072;SDS011;9161;47.348;9.648;2022-12-07T00:58:05;13.90;;;6.57;;
18072;SDS011;9161;47.348;9.648;2022-12-07T01:02:48;19.17;;;7.47;;
18072;SDS011;9161;47.348;9.648;2022-12-07T01:07:33;12.13;;;6.20;;
18072;SDS011;9161;47.348;9.648;2022-12-07T01:12:18;11.80;;;5.93;;
18072;SDS011;9161;47.348;9.648;2022-12-07T01:17:02;15.33;;;6.10;;
18072;SDS011;9161;47.348;9.648;2022-12-07T01:21:46;10.37;;;5.00;;
18072;SDS011;9161;47.348;9.648;2022-12-07T01:26:30;15.73;;;6.80;;
18072;SDS011;9161;47.348;9.648;2022-12-07T01:31:16;14.23;;;6.53;;
18072;SDS011;9161;47.348;9.648;2022-12-07T01:36:01;12.57;;;5.57;;
18072;SDS011;9161;47.348;9.648;2022-12-07T01:40:53;13.57;;;6.53;;
18072;SDS011;9161;47.348;9.648;2022-12-07T01:45:38;22.80;;;7.23;;
18072;SDS011;9161;47.348;9.648;2022-12-07T01:50:25;11.93;;;5.37;;
18072;SDS011;9161;47.348;9.648;2022-12-07T01:55:13;14.00;;;5.77;;
18072;SDS011;9161;47.348;9.648;2022-12-07T01:59:58;10.63;;;5.33;;
18072;SDS011;9161;47.348;9.648;2022-12-07T02:04:43;13.87;;;5.50;;
18072;SDS011;9161;47.348;9.648;2022-12-07T02:09:29;10.20;;;5.93;;
18072;SDS011;9161;47.348;9.648;2022-12-07T02:14:12;16.50;;;6.53;;
18072;SDS011;9161;47.348;9.648;2022-12-07T02:18:58;16.17;;;8.53;;
18072;SDS011;9161;47.348;9.648;2022-12-07T02:24:15;22.00;;;8.93;;
18072;SDS011;9161;47.348;9.648;2022-12-07T02:29:16;15.03;;;6.73;;
18072;SDS011;9161;47.348;9.648;2022-12-07T02:34:04;14.00;;;6.50;;
18072;SDS011;9161;47.348;9.648;2022-12-07T02:38:54;10.60;;;5.53;;
18072;SDS011;9161;47.348;9.648;2022-12-07T02:43:43;9.90;;;5.77;;
18072;SDS011;9161;47.348;9.648;2022-12-07T02:48:32;11.70;;;5.97;;
18072;SDS011;9161;47.348;9.648;2022-12-07T02:53:33;11.97;;;5.87;;
18072;SDS011;9161;47.348;9.648;2022-12-07T02:58:22;15.93;;;6.53;;
18072;SDS011;9161;47.348;9.648;2022-12-07T03:03:13;13.80;;;6.47;;
18072;SDS011;9161;47.348;9.648;2022-12-07T03:08:01;12.20;;;6.07;;
18072;SDS011;9161;47.348;9.648;2022-12-07T03:12:49;10.27;;;5.70;;
18072;SDS011;9161;47.348;9.648;2022-12-07T03:17:39;12.77;;;5.73;;
18072;SDS011;9161;47.348;9.648;2022-12-07T03:22:25;13.00;;;5.53;;
18072;SDS011;9161;47.348;9.648;2022-12-07T03:27:14;10.13;;;5.47;;
18072;SDS011;9161;47.348;9.648;2022-12-07T03:32:01;11.03;;;5.70;;
18072;SDS011;9161;47.348;9.648;2022-12-07T03:36:51;11.47;;;5.27;;
18072;SDS011;9161;47.348;9.648;2022-12-07T03:41:40;13.03;;;5.77;;
18072;SDS011;9161;47.348;9.648;2022-12-07T03:46:29;9.93;;;5.10;;
18072;SDS011;9161;47.348;9.648;2022-12-07T03:51:18;8.90;;;5.40;;
18072;SDS011;9161;47.348;9.648;2022-12-07T03:56:05;13.03;;;6.10;;
18072;SDS011;9161;47.348;9.648;2022-12-07T04:00:51;13.67;;;5.63;;
18072;SDS011;9161;47.348;9.648;2022-12-07T04:05:36;9.47;;;5.13;;
18072;SDS011;9161;47.348;9.648;2022-12-07T04:10:20;13.87;;;6.43;;
18072;SDS011;9161;47.348;9.648;2022-12-07T04:15:04;11.90;;;6.00;;
18072;SDS011;9161;47.348;9.648;2022-12-07T04:19:49;23.70;;;8.40;;
18072;SDS011;9161;47.348;9.648;2022-12-07T04:24:34;17.60;;;6.37;;
18072;SDS011;9161;47.348;9.648;2022-12-07T04:29:17;14.97;;;6.13;;
18072;SDS011;9161;47.348;9.648;2022-12-07T04:34:02;11.90;;;5.27;;
18072;SDS011;9161;47.348;9.648;2022-12-07T04:38:48;13.67;;;6.70;;
18072;SDS011;9161;47.348;9.648;2022-12-07T04:43:32;17.30;;;6.80;;
18072;SDS011;9161;47.348;9.648;2022-12-07T04:48:17;25.03;;;7.60;;
18072;SDS011;9161;47.348;9.648;2022-12-07T04:53:00;18.07;;;6.87;;
18072;SDS011;9161;47.348;9.648;2022-12-07T04:57:44;9.33;;;5.20;;
18072;SDS011;9161;47.348;9.648;2022-12-07T05:02:29;10.03;;;5.70;;
18072;SDS011;9161;47.348;9.648;2022-12-07T05:07:12;8.40;;;4.80;;
18072;SDS011;9161;47.348;9.648;2022-12-07T05:11:56;10.70;;;5.57;;
18072;SDS011;9161;47.348;9.648;2022-12-07T05:16:40;10.80;;;5.70;;
18072;SDS011;9161;47.348;9.648;2022-12-07T05:21:26;12.70;;;6.20;;
18072;SDS011;9161;47.348;9.648;2022-12-07T05:26:10;11.77;;;6.40;;
18072;SDS011;9161;47.348;9.648;2022-12-07T05:30:54;12.90;;;6.47;;
18072;SDS011;9161;47.348;9.648;2022-12-07T05:35:40;26.27;;;10.00;;
18072;SDS011;9161;47.348;9.648;2022-12-07T05:40:26;22.83;;;11.23;;
18072;SDS011;9161;47.348;9.648;2022-12-07T05:45:09;22.80;;;10.53;;
18072;SDS011;9161;47.348;9.648;2022-12-07T05:49:54;23.00;;;10.27;;
18072;SDS011;9161;47.348;9.648;2022-12-07T05:54:37;30.20;;;11.80;;
18072;SDS011;9161;47.348;9.648;2022-12-07T05:59:23;25.77;;;11.50;;
18072;SDS011;9161;47.348;9.648;2022-12-07T06:04:09;26.30;;;11.63;;
18072;SDS011;9161;47.348;9.648;2022-12-07T06:08:52;22.70;;;10.73;;
18072;SDS011;9161;47.348;9.648;2022-12-07T06:13:36;23.97;;;10.37;;
18072;SDS011;9161;47.348;9.648;2022-12-07T06:18:28;19.73;;;10.00;;
18072;SDS011;9161;47.348;9.648;2022-12-07T06:23:12;23.13;;;11.03;;
18072;SDS011;9161;47.348;9.648;2022-12-07T06:27:55;20.90;;;10.90;;
18072;SDS011;9161;47.348;9.648;2022-12-07T06:32:39;21.83;;;10.43;;
18072;SDS011;9161;47.348;9.648;2022-12-07T06:37:24;46.20;;;14.53;;
18072;SDS011;9161;47.348;9.648;2022-12-07T06:42:07;23.30;;;10.80;;
18072;SDS011;9161;47.348;9.648;2022-12-07T06:46:51;24.50;;;10.90;;
18072;SDS011;9161;47.348;9.648;2022-12-07T06:51:52;22.83;;;10.27;;
18072;SDS011;9161;47.348;9.648;2022-12-07T06:56:38;23.87;;;10.17;;
18072;SDS011;9161;47.348;9.648;2022-12-07T07:01:21;21.47;;;10.10;;
18072;SDS011;9161;47.348;9.648;2022-12-07T07:06:05;43.50;;;16.00;;
18072;SDS011;9161;47.348;9.648;2022-12-07T07:10:50;24.70;;;11.33;;
18072;SDS011;9161;47.348;9.648;2022-12-07T07:15:37;22.80;;;10.63;;
18072;SDS011;9161;47.348;9.648;2022-12-07T07:20:25;23.27;;;11.47;;
18072;SDS011;9161;47.348;9.648;2022-12-07T07:25:09;22.33;;;10.70;;
18072;SDS011;9161;47.348;9.648;2022-12-07T07:29:53;22.30;;;11.20;;
18072;SDS011;9161;47.348;9.648;2022-12-07T07:34:38;21.13;;;11.00;;
18072;SDS011;9161;47.348;9.648;2022-12-07T07:39:22;20.70;;;9.70;;
18072;SDS011;9161;47.348;9.648;2022-12-07T07:44:06;30.33;;;10.17;;
18072;SDS011;9161;47.348;9.648;2022-12-07T07:48:49;20.37;;;9.70;;
18072;SDS011;9161;47.348;9.648;2022-12-07T07:53:34;25.17;;;9.80;;
18072;SDS011;9161;47.348;9.648;2022-12-07T07:58:18;22.00;;;9.50;;
18072;SDS011;9161;47.348;9.648;2022-12-07T08:03:02;20.53;;;10.37;;
18072;SDS011;9161;47.348;9.648;2022-12-07T08:07:45;18.10;;;8.47;;
18072;SDS011;9161;47.348;9.648;2022-12-07T08:12:31;14.80;;;7.93;;
18072;SDS011;9161;47.348;9.648;2022-12-07T08:17:17;18.70;;;7.90;;
18072;SDS011;9161;47.348;9.648;2022-12-07T08:22:01;18.97;;;7.27;;
18072;SDS011;9161;47.348;9.648;2022-12-07T08:26:45;16.17;;;8.57;;
18072;SDS011;9161;47.348;9.648;2022-12-07T08:31:31;18.63;;;8.20;;
18072;SDS011;9161;47.348;9.648;2022-12-07T08:36:15;16.97;;;8.57;;
18072;SDS011;9161;47.348;9.648;2022-12-07T08:41:00;18.30;;;7.97;;
18072;SDS011;9161;47.348;9.648;2022-12-07T08:45:43;19.23;;;8.20;;
18072;SDS011;9161;47.348;9.648;2022-12-07T08:50:28;18.60;;;8.43;;
18072;SDS011;9161;47.348;9.648;2022-12-07T08:55:12;16.37;;;7.83;;
18072;SDS011;9161;47.348;9.648;2022-12-07T08:59:56;18.57;;;7.80;;
18072;SDS011;9161;47.348;9.648;2022-12-07T09:04:41;14.13;;;7.43;;
18072;SDS011;9161;47.348;9.648;2022-12-07T09:09:25;18.67;;;8.00;;
18072;SDS011;9161;47.348;9.648;2022-12-07T09:14:09;20.80;;;8.97;;
18072;SDS011;9161;47.348;9.648;2022-12-07T09:18:53;18.57;;;8.73;;
18072;SDS011;9161;47.348;9.648;2022-12-07T09:23:37;17.10;;;8.30;;
18072;SDS011;9161;47.348;9.648;2022-12-07T09:28:22;20.13;;;9.17;;
18072;SDS011;9161;47.348;9.648;2022-12-07T09:33:06;17.13;;;7.93;;
18072;SDS011;9161;47.348;9.648;2022-12-07T09:37:49;16.17;;;8.47;;
18072;SDS011;9161;47.348;9.648;2022-12-07T09:42:34;14.37;;;7.63;;
18072;SDS011;9161;47.348;9.648;2022-12-07T09:47:22;18.43;;;8.80;;
18072;SDS011;9161;47.348;9.648;2022-12-07T09:52:16;18.57;;;9.57;;
18072;SDS011;9161;47.348;9.648;2022-12-07T09:57:02;15.77;;;8.30;;
18072;SDS011;9161;47.348;9.648;2022-12-07T10:01:47;22.37;;;9.30;;
18072;SDS011;9161;47.348;9.648;2022-12-07T10:06:33;24.13;;;10.03;;
18072;SDS011;9161;47.348;9.648;2022-12-07T10:11:17;17.50;;;9.33;;
18072;SDS011;9161;47.348;9.648;2022-12-07T10:16:00;22.60;;;9.17;;
18072;SDS011;9161;47.348;9.648;2022-12-07T10:20:47;19.37;;;8.90;;
18072;SDS011;9161;47.348;9.648;2022-12-07T10:25:33;22.77;;;9.83;;
18072;SDS011;9161;47.348;9.648;2022-12-07T10:30:19;18.57;;;8.90;;
18072;SDS011;9161;47.348;9.648;2022-12-07T10:35:20;21.73;;;9.80;;
18072;SDS011;9161;47.348;9.648;2022-12-07T10:40:10;24.97;;;9.23;;
18072;SDS011;9161;47.348;9.648;2022-12-07T10:45:12;17.13;;;9.03;;
18072;SDS011;9161;47.348;9.648;2022-12-07T10:55:16;18.67;;;9.20;;
18072;SDS011;9161;47.348;9.648;2022-12-07T11:00:10;19.83;;;9.20;;
18072;SDS011;9161;47.348;9.648;2022-12-07T11:05:04;23.30;;;10.93;;
18072;SDS011;9161;47.348;9.648;2022-12-07T11:10:01;23.07;;;10.20;;
18072;SDS011;9161;47.348;9.648;2022-12-07T11:14:52;19.00;;;8.73;;
18072;SDS011;9161;47.348;9.648;2022-12-07T11:19:49;21.27;;;10.03;;
18072;SDS011;9161;47.348;9.648;2022-12-07T11:24:46;20.80;;;9.97;;
18072;SDS011;9161;47.348;9.648;2022-12-07T11:34:47;19.37;;;8.70;;
18072;SDS011;9161;47.348;9.648;2022-12-07T11:39:41;18.07;;;8.33;;
18072;SDS011;9161;47.348;9.648;2022-12-07T11:44:31;23.50;;;7.53;;
18072;SDS011;9161;47.348;9.648;2022-12-07T11:49:19;17.17;;;6.90;;
18072;SDS011;9161;47.348;9.648;2022-12-07T11:54:12;15.33;;;7.77;;
18072;SDS011;9161;47.348;9.648;2022-12-07T11:59:01;18.03;;;7.97;;
18072;SDS011;9161;47.348;9.648;2022-12-07T12:03:52;20.93;;;8.30;;
18072;SDS011;9161;47.348;9.648;2022-12-07T12:08:43;16.70;;;8.27;;
18072;SDS011;9161;47.348;9.648;2022-12-07T12:14:05;15.63;;;7.70;;
18072;SDS011;9161;47.348;9.648;2022-12-07T12:19:22;14.17;;;6.90;;
18072;SDS011;9161;47.348;9.648;2022-12-07T12:24:16;13.30;;;6.27;;
18072;SDS011;9161;47.348;9.648;2022-12-07T12:29:02;15.80;;;6.93;;
18072;SDS011;9161;47.348;9.648;2022-12-07T12:33:50;14.93;;;7.33;;
18072;SDS011;9161;47.348;9.648;2022-12-07T12:38:48;17.97;;;8.30;;
18072;SDS011;9161;47.348;9.648;2022-12-07T12:43:42;15.50;;;7.27;;
18072;SDS011;9161;47.348;9.648;2022-12-07T12:48:33;14.73;;;7.30;;
18072;SDS011;9161;47.348;9.648;2022-12-07T12:53:20;17.13;;;7.63;;
18072;SDS011;9161;47.348;9.648;2022-12-07T13:03:20;18.23;;;8.17;;
18072;SDS011;9161;47.348;9.648;2022-12-07T13:08:12;18.83;;;8.40;;
18072;SDS011;9161;47.348;9.648;2022-12-07T13:13:00;18.27;;;8.57;;
18072;SDS011;9161;47.348;9.648;2022-12-07T13:23:22;23.07;;;8.23;;
18072;SDS011;9161;47.348;9.648;2022-12-07T13:28:10;20.33;;;9.13;;
18072;SDS011;9161;47.348;9.648;2022-12-07T13:32:59;19.43;;;8.63;;
18072;SDS011;9161;47.348;9.648;2022-12-07T13:37:46;22.07;;;9.00;;
18072;SDS011;9161;47.348;9.648;2022-12-07T13:42:31;21.13;;;9.47;;
18072;SDS011;9161;47.348;9.648;2022-12-07T13:47:17;15.73;;;8.20;;
18072;SDS011;9161;47.348;9.648;2022-12-07T13:52:16;19.07;;;8.80;;
18072;SDS011;9161;47.348;9.648;2022-12-07T13:57:00;19.90;;;8.70;;
18072;SDS011;9161;47.348;9.648;2022-12-07T14:01:46;17.60;;;8.40;;
18072;SDS011;9161;47.348;9.648;2022-12-07T14:06:33;22.90;;;10.10;;
18072;SDS011;9161;47.348;9.648;2022-12-07T14:11:17;39.93;;;10.80;;
18072;SDS011;9161;47.348;9.648;2022-12-07T14:16:04;22.17;;;9.30;;
18072;SDS011;9161;47.348;9.648;2022-12-07T14:21:13;20.73;;;7.37;;
18072;SDS011;9161;47.348;9.648;2022-12-07T14:26:05;25.27;;;11.40;;
18072;SDS011;9161;47.348;9.648;2022-12-07T14:30:51;26.33;;;11.90;;
18072;SDS011;9161;47.348;9.648;2022-12-07T14:35:34;18.90;;;9.00;;
18072;SDS011;9161;47.348;9.648;2022-12-07T14:40:24;20.73;;;8.20;;
18072;SDS011;9161;47.348;9.648;2022-12-07T14:45:12;16.47;;;8.67;;
18072;SDS011;9161;47.348;9.648;2022-12-07T14:49:58;18.77;;;9.00;;
18072;SDS011;9161;47.348;9.648;2022-12-07T14:54:47;18.90;;;9.50;;
18072;SDS011;9161;47.348;9.648;2022-12-07T14:59:31;22.17;;;9.57;;
18072;SDS011;9161;47.348;9.648;2022-12-07T15:04:19;19.43;;;9.30;;
18072;SDS011;9161;47.348;9.648;2022-12-07T15:09:03;20.73;;;10.03;;
18072;SDS011;9161;47.348;9.648;2022-12-07T15:13:46;25.87;;;9.13;;
18072;SDS011;9161;47.348;9.648;2022-12-07T15:18:49;24.30;;;9.47;;
18072;SDS011;9161;47.348;9.648;2022-12-07T15:23:53;23.17;;;10.37;;
18072;SDS011;9161;47.348;9.648;2022-12-07T15:28:37;20.17;;;9.43;;
18072;SDS011;9161;47.348;9.648;2022-12-07T15:33:20;26.40;;;11.50;;
18072;SDS011;9161;47.348;9.648;2022-12-07T15:38:05;26.90;;;11.33;;
18072;SDS011;9161;47.348;9.648;2022-12-07T15:42:49;25.97;;;11.53;;
18072;SDS011;9161;47.348;9.648;2022-12-07T15:47:33;30.13;;;12.67;;
18072;SDS011;9161;47.348;9.648;2022-12-07T15:52:39;31.40;;;13.00;;
18072;SDS011;9161;47.348;9.648;2022-12-07T15:57:24;26.27;;;11.93;;
18072;SDS011;9161;47.348;9.648;2022-12-07T16:02:08;30.77;;;12.67;;
18072;SDS011;9161;47.348;9.648;2022-12-07T16:06:52;26.87;;;11.70;;
18072;SDS011;9161;47.348;9.648;2022-12-07T16:11:36;29.90;;;11.67;;
18072;SDS011;9161;47.348;9.648;2022-12-07T16:16:21;28.27;;;12.37;;
18072;SDS011;9161;47.348;9.648;2022-12-07T16:21:04;23.30;;;10.77;;
18072;SDS011;9161;47.348;9.648;2022-12-07T16:25:48;28.07;;;12.10;;
18072;SDS011;9161;47.348;9.648;2022-12-07T16:30:33;25.63;;;12.20;;
18072;SDS011;9161;47.348;9.648;2022-12-07T16:35:18;31.77;;;12.77;;
18072;SDS011;9161;47.348;9.648;2022-12-07T16:40:02;23.60;;;11.23;;
18072;SDS011;9161;47.348;9.648;2022-12-07T16:44:46;26.70;;;12.47;;
18072;SDS011;9161;47.348;9.648;2022-12-07T16:49:30;29.83;;;13.67;;
18072;SDS011;9161;47.348;9.648;2022-12-07T16:54:15;33.50;;;16.03;;
18072;SDS011;9161;47.348;9.648;2022-12-07T16:58:59;32.13;;;15.00;;
18072;SDS011;9161;47.348;9.648;2022-12-07T17:03:42;31.43;;;14.43;;
18072;SDS011;9161;47.348;9.648;2022-12-07T17:08:27;29.73;;;12.93;;
18072;SDS011;9161;47.348;9.648;2022-12-07T17:13:12;26.77;;;12.77;;
18072;SDS011;9161;47.348;9.648;2022-12-07T17:18:14;36.00;;;14.30;;
18072;SDS011;9161;47.348;9.648;2022-12-07T17:22:58;30.90;;;14.37;;
18072;SDS011;9161;47.348;9.648;2022-12-07T17:27:45;35.77;;;14.57;;
18072;SDS011;9161;47.348;9.648;2022-12-07T17:32:31;36.67;;;16.00;;
18072;SDS011;9161;47.348;9.648;2022-12-07T17:37:15;41.23;;;17.37;;
18072;SDS011;9161;47.348;9.648;2022-12-07T17:41:58;35.50;;;15.23;;
18072;SDS011;9161;47.348;9.648;2022-12-07T17:47:00;31.83;;;14.00;;
18072;SDS011;9161;47.348;9.648;2022-12-07T17:51:46;35.90;;;14.67;;
18072;SDS011;9161;47.348;9.648;2022-12-07T17:56:47;34.33;;;14.73;;
18072;SDS011;9161;47.348;9.648;2022-12-07T18:01:31;29.10;;;14.13;;
18072;SDS011;9161;47.348;9.648;2022-12-07T18:06:16;32.93;;;13.30;;
18072;SDS011;9161;47.348;9.648;2022-12-07T18:11:02;26.00;;;12.93;;
18072;SDS011;9161;47.348;9.648;2022-12-07T18:15:47;29.00;;;13.17;;
18072;SDS011;9161;47.348;9.648;2022-12-07T18:20:39;33.73;;;13.07;;
18072;SDS011;9161;47.348;9.648;2022-12-07T18:25:23;31.03;;;14.10;;
18072;SDS011;9161;47.348;9.648;2022-12-07T18:30:09;28.27;;;13.13;;
18072;SDS011;9161;47.348;9.648;2022-12-07T18:34:54;29.07;;;13.87;;
18072;SDS011;9161;47.348;9.648;2022-12-07T18:39:38;24.53;;;12.87;;
18072;SDS011;9161;47.348;9.648;2022-12-07T18:44:25;29.20;;;12.20;;
18072;SDS011;9161;47.348;9.648;2022-12-07T18:49:14;29.63;;;14.07;;
18072;SDS011;9161;47.348;9.648;2022-12-07T18:54:00;30.37;;;14.77;;
18072;SDS011;9161;47.348;9.648;2022-12-07T18:58:47;31.63;;;14.10;;
18072;SDS011;9161;47.348;9.648;2022-12-07T19:03:49;29.73;;;13.50;;
18072;SDS011;9161;47.348;9.648;2022-12-07T19:08:37;34.43;;;14.83;;
18072;SDS011;9161;47.348;9.648;2022-12-07T19:13:22;33.33;;;14.83;;
18072;SDS011;9161;47.348;9.648;2022-12-07T19:18:08;29.67;;;13.23;;
18072;SDS011;9161;47.348;9.648;2022-12-07T19:22:55;32.73;;;14.30;;
18072;SDS011;9161;47.348;9.648;2022-12-07T19:27:41;33.30;;;15.53;;
18072;SDS011;9161;47.348;9.648;2022-12-07T19:32:26;37.73;;;15.17;;
18072;SDS011;9161;47.348;9.648;2022-12-07T19:37:12;26.53;;;12.70;;
18072;SDS011;9161;47.348;9.648;2022-12-07T19:41:57;39.03;;;14.50;;
18072;SDS011;9161;47.348;9.648;2022-12-07T19:46:46;33.57;;;14.13;;
18072;SDS011;9161;47.348;9.648;2022-12-07T19:51:32;33.50;;;14.23;;
18072;SDS011;9161;47.348;9.648;2022-12-07T19:56:18;36.03;;;16.33;;
18072;SDS011;9161;47.348;9.648;2022-12-07T20:01:05;39.57;;;15.70;;
18072;SDS011;9161;47.348;9.648;2022-12-07T20:05:54;30.27;;;14.17;;
18072;SDS011;9161;47.348;9.648;2022-12-07T20:10:39;31.50;;;15.23;;
18072;SDS011;9161;47.348;9.648;2022-12-07T20:15:27;39.83;;;16.70;;
18072;SDS011;9161;47.348;9.648;2022-12-07T20:20:12;32.67;;;15.50;;
18072;SDS011;9161;47.348;9.648;2022-12-07T20:25:00;30.07;;;13.70;;
18072;SDS011;9161;47.348;9.648;2022-12-07T20:29:47;31.77;;;14.87;;
18072;SDS011;9161;47.348;9.648;2022-12-07T20:34:34;31.60;;;14.33;;
18072;SDS011;9161;47.348;9.648;2022-12-07T20:39:24;30.47;;;15.70;;
18072;SDS011;9161;47.348;9.648;2022-12-07T20:44:13;37.07;;;17.30;;
18072;SDS011;9161;47.348;9.648;2022-12-07T20:48:59;37.60;;;16.27;;
18072;SDS011;9161;47.348;9.648;2022-12-07T20:53:44;42.60;;;19.33;;
18072;SDS011;9161;47.348;9.648;2022-12-07T20:58:30;50.60;;;22.93;;
18072;SDS011;9161;47.348;9.648;2022-12-07T21:03:16;53.53;;;22.33;;
18072;SDS011;9161;47.348;9.648;2022-12-07T21:08:00;43.03;;;19.43;;
18072;SDS011;9161;47.348;9.648;2022-12-07T21:12:45;45.70;;;18.30;;
18072;SDS011;9161;47.348;9.648;2022-12-07T21:17:36;40.80;;;18.77;;
18072;SDS011;9161;47.348;9.648;2022-12-07T21:22:22;44.30;;;19.07;;
18072;SDS011;9161;47.348;9.648;2022-12-07T21:27:07;36.90;;;18.23;;
18072;SDS011;9161;47.348;9.648;2022-12-07T21:31:51;40.23;;;18.97;;
18072;SDS011;9161;47.348;9.648;2022-12-07T21:36:36;45.03;;;18.13;;
18072;SDS011;9161;47.348;9.648;2022-12-07T21:41:22;37.40;;;17.53;;
18072;SDS011;9161;47.348;9.648;2022-12-07T21:46:07;36.33;;;17.97;;
18072;SDS011;9161;47.348;9.648;2022-12-07T21:50:51;41.80;;;19.27;;
18072;SDS011;9161;47.348;9.648;2022-12-07T21:55:38;35.13;;;16.17;;
18072;SDS011;9161;47.348;9.648;2022-12-07T22:00:23;38.57;;;18.17;;
18072;SDS011;9161;47.348;9.648;2022-12-07T22:05:09;43.37;;;18.23;;
18072;SDS011;9161;47.348;9.648;2022-12-07T22:09:52;35.87;;;16.07;;
18072;SDS011;9161;47.348;9.648;2022-12-07T22:14:36;28.50;;;13.53;;
18072;SDS011;9161;47.348;9.648;2022-12-07T22:19:38;28.47;;;12.37;;
18072;SDS011;9161;47.348;9.648;2022-12-07T22:24:22;25.17;;;10.40;;
18072;SDS011;9161;47.348;9.648;2022-12-07T22:29:06;26.43;;;11.40;;
18072;SDS011;9161;47.348;9.648;2022-12-07T22:33:51;19.03;;;9.13;;
18072;SDS011;9161;47.348;9.648;2022-12-07T22:38:39;16.30;;;7.37;;
18072;SDS011;9161;47.348;9.648;2022-12-07T22:43:24;17.40;;;7.20;;
18072;SDS011;9161;47.348;9.648;2022-12-07T22:48:08;16.13;;;7.13;;
18072;SDS011;9161;47.348;9.648;2022-12-07T22:52:52;14.93;;;7.13;;
18072;SDS011;9161;47.348;9.648;2022-12-07T22:57:38;16.30;;;6.20;;
18072;SDS011;9161;47.348;9.648;2022-12-07T23:02:22;14.33;;;6.13;;
18072;SDS011;9161;47.348;9.648;2022-12-07T23:07:06;13.20;;;6.20;;
18072;SDS011;9161;47.348;9.648;2022-12-07T23:11:50;16.93;;;6.47;;
18072;SDS011;9161;47.348;9.648;2022-12-07T23:16:52;12.37;;;5.40;;
18072;SDS011;9161;47.348;9.648;2022-12-07T23:21:36;11.73;;;5.50;;
18072;SDS011;9161;47.348;9.648;2022-12-07T23:26:21;10.93;;;5.10;;
18072;SDS011;9161;47.348;9.648;2022-12-07T23:31:04;11.23;;;5.27;;
18072;SDS011;9161;47.348;9.648;2022-12-07T23:35:50;11.87;;;4.60;;
18072;SDS011;9161;47.348;9.648;2022-12-07T23:40:35;9.27;;;4.10;;
18072;SDS011;9161;47.348;9.648;2022-12-07T23:45:18;8.10;;;4.10;;
18072;SDS011;9161;47.348;9.648;2022-12-07T23:50:02;8.50;;;3.73;;
18072;SDS011;9161;47.348;9.648;2022-12-07T23:54:49;9.67;;;3.93;;
18072;SDS011;9161;47.348;9.648;2022-12-07T23:59:32;8.03;;;3.60;;
